createdAt,value
2023-12-16T00:00:45.174Z,0.00
2023-12-16T00:01:45.412Z,0.00
2023-12-16T00:02:44.654Z,0.00
2023-12-16T00:03:44.758Z,0.00
2023-12-16T00:04:44.654Z,0.00
2023-12-16T00:05:44.649Z,0.00
2023-12-16T00:06:44.642Z,0.00
2023-12-16T00:07:44.627Z,0.00
2023-12-16T00:08:44.582Z,0.00
2023-12-16T00:09:44.597Z,0.00
2023-12-16T00:10:44.563Z,0.00
2023-12-16T00:11:44.553Z,0.00
2023-12-16T00:12:44.554Z,0.00
2023-12-16T00:13:44.537Z,0.00
2023-12-16T00:14:44.529Z,0.00
2023-12-16T00:15:44.515Z,0.00
2023-12-16T00:16:44.495Z,0.00
2023-12-16T00:17:44.811Z,0.00
2023-12-16T00:18:44.593Z,0.00
2023-12-16T00:19:44.527Z,0.00
2023-12-16T00:20:44.455Z,0.00
2023-12-16T00:21:44.546Z,0.00
2023-12-16T00:22:44.495Z,0.00
2023-12-16T00:23:44.551Z,0.00
2023-12-16T00:24:44.508Z,0.00
2023-12-16T00:25:44.502Z,0.00
2023-12-16T00:26:44.458Z,0.00
2023-12-16T00:27:44.409Z,0.00
2023-12-16T00:28:44.367Z,0.00
2023-12-16T00:29:44.369Z,0.00
2023-12-16T00:30:44.467Z,0.00
2023-12-16T00:31:44.409Z,0.00
2023-12-16T00:32:44.380Z,0.00
2023-12-16T00:33:44.434Z,0.00
2023-12-16T00:34:44.338Z,0.00
2023-12-16T00:35:44.293Z,0.00
2023-12-16T00:36:44.453Z,0.00
2023-12-16T00:37:44.267Z,0.00
2023-12-16T00:38:44.257Z,0.00
2023-12-16T00:39:44.288Z,0.00
2023-12-16T00:40:44.255Z,0.00
2023-12-16T00:41:44.234Z,0.00
2023-12-16T00:42:44.233Z,0.00
2023-12-16T00:43:44.201Z,0.00
2023-12-16T00:44:44.201Z,0.00
2023-12-16T00:45:44.249Z,0.00
2023-12-16T00:46:44.167Z,0.00
2023-12-16T00:47:44.750Z,0.00
2023-12-16T00:48:44.223Z,0.00
2023-12-16T00:49:44.178Z,0.00
2023-12-16T00:50:44.116Z,0.00
2023-12-16T00:51:44.145Z,0.00
2023-12-16T00:52:44.131Z,0.00
2023-12-16T00:53:44.115Z,0.00
2023-12-16T00:54:44.140Z,0.00
2023-12-16T00:55:44.075Z,0.00
2023-12-16T00:56:44.073Z,0.00
2023-12-16T00:57:44.117Z,0.00
2023-12-16T00:58:44.037Z,0.00
2023-12-16T00:59:44.015Z,0.00
2023-12-16T01:00:44.112Z,0.00
2023-12-16T01:01:44.276Z,0.00
2023-12-16T01:02:43.990Z,0.00
2023-12-16T01:03:44.054Z,0.00
2023-12-16T01:04:44.047Z,0.00
2023-12-16T01:05:44.056Z,0.00
2023-12-16T01:06:44.232Z,0.00
2023-12-16T01:07:43.926Z,0.00
2023-12-16T01:08:43.933Z,0.00
2023-12-16T01:09:43.998Z,0.00
2023-12-16T01:10:44.255Z,0.00
2023-12-16T01:11:43.922Z,0.00
2023-12-16T01:12:43.929Z,0.00
2023-12-16T01:13:43.865Z,0.00
2023-12-16T01:14:43.875Z,0.00
2023-12-16T01:15:44.127Z,0.00
2023-12-16T01:16:43.838Z,0.00
2023-12-16T01:17:44.006Z,0.00
2023-12-16T01:18:43.962Z,0.00
2023-12-16T01:19:43.828Z,0.00
2023-12-16T01:20:43.789Z,0.00
2023-12-16T01:21:44.115Z,0.00
2023-12-16T01:22:43.773Z,0.00
2023-12-16T01:23:43.785Z,0.00
2023-12-16T01:24:44.103Z,0.00
2023-12-16T01:25:43.995Z,0.00
2023-12-16T01:26:43.803Z,0.00
2023-12-16T01:27:43.953Z,0.00
2023-12-16T01:28:43.712Z,0.00
2023-12-16T01:29:43.685Z,0.00
2023-12-16T01:30:44.003Z,0.00
2023-12-16T01:31:43.748Z,0.00
2023-12-16T01:32:43.665Z,0.00
2023-12-16T01:33:43.688Z,0.00
2023-12-16T01:34:43.660Z,0.00
2023-12-16T01:35:43.629Z,0.00
2023-12-16T01:36:43.646Z,0.00
2023-12-16T01:37:43.611Z,0.00
2023-12-16T01:38:43.612Z,0.00
2023-12-16T01:39:43.687Z,0.00
2023-12-16T01:40:43.732Z,0.00
2023-12-16T01:41:43.574Z,0.00
2023-12-16T01:42:43.588Z,0.00
2023-12-16T01:43:43.554Z,0.00
2023-12-16T01:44:43.530Z,0.00
2023-12-16T01:45:43.603Z,0.00
2023-12-16T01:46:43.558Z,0.00
2023-12-16T01:47:43.670Z,0.00
2023-12-16T01:48:43.774Z,0.00
2023-12-16T01:49:43.855Z,0.00
2023-12-16T01:50:43.470Z,0.00
2023-12-16T01:51:43.741Z,0.00
2023-12-16T01:52:43.455Z,0.00
2023-12-16T01:53:43.432Z,0.00
2023-12-16T01:54:43.471Z,0.00
2023-12-16T01:55:43.416Z,0.00
2023-12-16T01:56:43.406Z,0.00
2023-12-16T01:57:43.495Z,0.00
2023-12-16T01:58:43.421Z,0.00
2023-12-16T01:59:43.505Z,0.00
2023-12-16T02:00:43.572Z,0.00
2023-12-16T02:01:43.647Z,0.00
2023-12-16T02:02:43.380Z,0.00
2023-12-16T02:03:43.387Z,0.00
2023-12-16T02:04:43.376Z,0.00
2023-12-16T02:05:43.326Z,0.00
2023-12-16T02:06:43.391Z,0.00
2023-12-16T02:07:43.609Z,0.00
2023-12-16T02:08:43.262Z,0.00
2023-12-16T02:09:43.357Z,0.00
2023-12-16T02:10:43.540Z,0.00
2023-12-16T02:11:43.236Z,0.00
2023-12-16T02:12:43.247Z,0.00
2023-12-16T02:13:43.218Z,0.00
2023-12-16T02:14:43.200Z,0.00
2023-12-16T02:15:43.494Z,0.00
2023-12-16T02:16:43.182Z,0.00
2023-12-16T02:17:43.454Z,0.00
2023-12-16T02:18:43.205Z,0.00
2023-12-16T02:19:43.306Z,0.00
2023-12-16T02:20:43.153Z,0.00
2023-12-16T02:21:43.192Z,0.00
2023-12-16T02:22:43.113Z,0.00
2023-12-16T02:23:43.102Z,0.00
2023-12-16T02:24:43.670Z,0.00
2023-12-16T02:25:43.090Z,0.00
2023-12-16T02:26:43.067Z,0.00
2023-12-16T02:27:43.151Z,0.00
2023-12-16T02:28:43.050Z,0.00
2023-12-16T02:29:43.053Z,0.00
2023-12-16T02:30:43.106Z,0.00
2023-12-16T02:31:45.617Z,0.00
2023-12-16T02:32:43.227Z,0.00
2023-12-16T02:33:43.079Z,0.00
2023-12-16T02:34:43.421Z,0.00
2023-12-16T02:35:42.978Z,0.00
2023-12-16T02:36:42.963Z,0.00
2023-12-16T02:37:43.088Z,0.00
2023-12-16T02:38:42.940Z,0.00
2023-12-16T02:39:42.941Z,0.00
2023-12-16T02:40:42.907Z,0.00
2023-12-16T02:41:42.924Z,0.00
2023-12-16T02:42:42.907Z,0.00
2023-12-16T02:43:42.902Z,0.00
2023-12-16T02:44:42.870Z,0.00
2023-12-16T02:45:42.877Z,0.00
2023-12-16T02:46:42.933Z,0.00
2023-12-16T02:47:43.138Z,0.00
2023-12-16T02:48:42.861Z,0.00
2023-12-16T02:49:42.888Z,0.00
2023-12-16T02:50:43.059Z,0.00
2023-12-16T02:51:42.824Z,0.00
2023-12-16T02:52:42.803Z,0.00
2023-12-16T02:53:42.800Z,0.00
2023-12-16T02:54:42.789Z,0.00
2023-12-16T02:55:42.861Z,0.00
2023-12-16T02:56:42.772Z,0.00
2023-12-16T02:57:42.789Z,0.00
2023-12-16T02:58:42.725Z,0.00
2023-12-16T02:59:42.989Z,0.00
2023-12-16T03:00:42.704Z,0.00
2023-12-16T03:01:42.780Z,0.00
2023-12-16T03:02:42.691Z,0.00
2023-12-16T03:03:42.667Z,0.00
2023-12-16T03:04:42.664Z,0.00
2023-12-16T03:05:42.965Z,0.00
2023-12-16T03:06:42.637Z,0.00
2023-12-16T03:07:42.721Z,0.00
2023-12-16T03:08:42.615Z,0.00
2023-12-16T03:09:42.614Z,0.00
2023-12-16T03:10:42.585Z,0.00
2023-12-16T03:11:42.866Z,0.00
2023-12-16T03:12:42.565Z,0.00
2023-12-16T03:13:42.562Z,0.00
2023-12-16T03:14:42.549Z,0.00
2023-12-16T03:15:42.552Z,0.00
2023-12-16T03:16:42.535Z,0.00
2023-12-16T03:17:42.992Z,0.00
2023-12-16T03:18:42.781Z,0.00
2023-12-16T03:19:42.699Z,0.00
2023-12-16T03:20:42.491Z,0.00
2023-12-16T03:21:42.717Z,0.00
2023-12-16T03:22:42.454Z,0.00
2023-12-16T03:23:42.449Z,0.00
2023-12-16T03:24:42.436Z,0.00
2023-12-16T03:25:42.548Z,0.00
2023-12-16T03:26:42.430Z,0.00
2023-12-16T03:27:42.423Z,0.00
2023-12-16T03:28:42.411Z,0.00
2023-12-16T03:29:42.413Z,0.00
2023-12-16T03:30:42.480Z,0.00
2023-12-16T03:31:42.479Z,0.00
2023-12-16T03:32:42.409Z,0.00
2023-12-16T03:33:42.425Z,0.00
2023-12-16T03:34:42.397Z,0.00
2023-12-16T03:35:42.318Z,0.00
2023-12-16T03:36:42.293Z,0.00
2023-12-16T03:37:42.293Z,0.00
2023-12-16T03:38:42.279Z,0.00
2023-12-16T03:39:42.293Z,0.00
2023-12-16T03:40:42.329Z,0.00
2023-12-16T03:41:42.256Z,0.00
2023-12-16T03:42:42.485Z,0.00
2023-12-16T03:43:42.284Z,0.00
2023-12-16T03:44:42.420Z,0.00
2023-12-16T03:45:42.214Z,0.00
2023-12-16T03:46:42.208Z,0.00
2023-12-16T03:47:42.356Z,0.00
2023-12-16T03:48:42.244Z,0.00
2023-12-16T03:49:42.245Z,0.00
2023-12-16T03:50:42.163Z,0.00
2023-12-16T03:51:42.139Z,0.00
2023-12-16T03:52:42.134Z,0.00
2023-12-16T03:53:42.125Z,0.00
2023-12-16T03:54:42.140Z,0.00
2023-12-16T03:55:42.094Z,0.00
2023-12-16T03:56:42.087Z,0.00
2023-12-16T03:57:42.192Z,0.00
2023-12-16T03:58:42.082Z,0.00
2023-12-16T03:59:42.071Z,0.00
2023-12-16T04:00:42.093Z,0.00
2023-12-16T04:01:42.116Z,0.00
2023-12-16T04:02:42.055Z,0.00
2023-12-16T04:03:42.119Z,0.00
2023-12-16T04:04:42.027Z,0.00
2023-12-16T04:05:42.067Z,0.00
2023-12-16T04:06:41.971Z,0.00
2023-12-16T04:07:42.058Z,0.00
2023-12-16T04:08:41.948Z,0.00
2023-12-16T04:09:41.952Z,0.00
2023-12-16T04:10:41.938Z,0.00
2023-12-16T04:11:41.935Z,0.00
2023-12-16T04:12:41.926Z,0.00
2023-12-16T04:13:41.968Z,0.00
2023-12-16T04:14:41.887Z,0.00
2023-12-16T04:15:42.125Z,0.00
2023-12-16T04:16:41.876Z,0.00
2023-12-16T04:17:42.377Z,0.00
2023-12-16T04:18:41.946Z,0.00
2023-12-16T04:19:41.854Z,0.00
2023-12-16T04:20:41.847Z,0.00
2023-12-16T04:21:41.819Z,0.00
2023-12-16T04:22:41.826Z,0.00
2023-12-16T04:23:41.806Z,0.00
2023-12-16T04:24:41.788Z,0.00
2023-12-16T04:25:42.053Z,0.00
2023-12-16T04:26:41.782Z,0.00
2023-12-16T04:27:42.005Z,0.00
2023-12-16T04:28:41.736Z,0.00
2023-12-16T04:29:41.983Z,0.00
2023-12-16T04:30:41.849Z,0.00
2023-12-16T04:31:41.789Z,0.00
2023-12-16T04:32:41.722Z,0.00
2023-12-16T04:33:41.768Z,0.00
2023-12-16T04:34:42.007Z,0.00
2023-12-16T04:35:41.664Z,0.00
2023-12-16T04:36:41.648Z,0.00
2023-12-16T04:37:41.939Z,0.00
2023-12-16T04:38:41.626Z,0.00
2023-12-16T04:39:41.932Z,0.00
2023-12-16T04:40:41.621Z,0.00
2023-12-16T04:41:41.786Z,0.00
2023-12-16T04:42:41.580Z,0.00
2023-12-16T04:43:41.586Z,0.00
2023-12-16T04:44:41.570Z,0.00
2023-12-16T04:45:41.679Z,0.00
2023-12-16T04:46:41.538Z,0.00
2023-12-16T04:47:41.807Z,0.00
2023-12-16T04:48:41.849Z,0.00
2023-12-16T04:49:41.549Z,0.00
2023-12-16T04:50:41.763Z,0.00
2023-12-16T04:51:41.476Z,0.00
2023-12-16T04:52:41.470Z,0.00
2023-12-16T04:53:41.463Z,0.00
2023-12-16T04:54:41.450Z,0.00
2023-12-16T04:55:41.433Z,0.00
2023-12-16T04:56:41.445Z,0.00
2023-12-16T04:57:41.713Z,0.00
2023-12-16T04:58:41.434Z,0.00
2023-12-16T04:59:41.393Z,0.00
2023-12-16T05:00:41.420Z,0.00
2023-12-16T05:01:41.438Z,0.00
2023-12-16T05:02:41.381Z,0.00
2023-12-16T05:03:41.391Z,0.00
2023-12-16T05:04:41.387Z,0.00
2023-12-16T05:05:41.365Z,0.00
2023-12-16T05:06:41.319Z,0.00
2023-12-16T05:07:41.600Z,0.00
2023-12-16T05:08:41.346Z,0.00
2023-12-16T05:09:41.302Z,0.00
2023-12-16T05:10:41.532Z,0.00
2023-12-16T05:11:41.260Z,0.00
2023-12-16T05:12:41.270Z,0.00
2023-12-16T05:13:41.246Z,0.00
2023-12-16T05:14:41.223Z,0.00
2023-12-16T05:15:41.216Z,0.00
2023-12-16T05:16:41.226Z,0.00
2023-12-16T05:17:41.500Z,0.00
2023-12-16T05:18:41.222Z,0.00
2023-12-16T05:19:41.264Z,0.00
2023-12-16T05:20:41.164Z,0.00
2023-12-16T05:21:41.155Z,0.00
2023-12-16T05:22:41.145Z,0.00
2023-12-16T05:23:41.138Z,0.00
2023-12-16T05:24:41.119Z,0.00
2023-12-16T05:25:41.178Z,0.00
2023-12-16T05:26:41.116Z,0.00
2023-12-16T05:27:41.396Z,0.00
2023-12-16T05:28:41.076Z,0.00
2023-12-16T05:29:41.060Z,0.00
2023-12-16T05:30:41.111Z,0.00
2023-12-16T05:31:41.147Z,0.00
2023-12-16T05:32:41.118Z,0.00
2023-12-16T05:33:41.396Z,0.00
2023-12-16T05:34:41.388Z,0.00
2023-12-16T05:35:41.099Z,0.00
2023-12-16T05:36:40.995Z,0.00
2023-12-16T05:37:41.198Z,0.00
2023-12-16T05:38:40.975Z,0.00
2023-12-16T05:39:40.952Z,0.00
2023-12-16T05:40:41.283Z,0.00
2023-12-16T05:41:40.933Z,0.00
2023-12-16T05:42:40.923Z,0.00
2023-12-16T05:43:40.907Z,0.00
2023-12-16T05:44:41.181Z,0.00
2023-12-16T05:45:40.898Z,0.00
2023-12-16T05:46:40.891Z,0.00
2023-12-16T05:47:41.098Z,0.00
2023-12-16T05:48:40.954Z,0.00
2023-12-16T05:49:40.934Z,0.00
2023-12-16T05:50:41.123Z,0.00
2023-12-16T05:51:41.297Z,0.00
2023-12-16T05:52:40.824Z,0.00
2023-12-16T05:53:41.005Z,0.00
2023-12-16T05:54:40.918Z,0.00
2023-12-16T05:55:41.839Z,0.00
2023-12-16T05:56:40.780Z,0.00
2023-12-16T05:57:41.341Z,0.00
2023-12-16T05:58:40.785Z,0.00
2023-12-16T05:59:40.835Z,0.00
2023-12-16T06:00:40.745Z,0.00
2023-12-16T06:01:40.719Z,0.00
2023-12-16T06:02:40.747Z,0.00
2023-12-16T06:03:40.696Z,0.00
2023-12-16T06:04:40.669Z,0.00
2023-12-16T06:05:40.704Z,0.00
2023-12-16T06:06:40.658Z,0.00
2023-12-16T06:07:40.894Z,0.00
2023-12-16T06:08:40.660Z,0.00
2023-12-16T06:09:40.613Z,0.00
2023-12-16T06:10:40.717Z,0.00
2023-12-16T06:11:40.601Z,0.00
2023-12-16T06:12:40.604Z,0.00
2023-12-16T06:13:40.584Z,0.00
2023-12-16T06:14:40.565Z,0.00
2023-12-16T06:15:40.620Z,0.00
2023-12-16T06:16:40.682Z,0.00
2023-12-16T06:17:41.196Z,0.00
2023-12-16T06:18:40.620Z,0.00
2023-12-16T06:19:40.589Z,0.00
2023-12-16T06:20:40.502Z,0.00
2023-12-16T06:21:40.486Z,0.00
2023-12-16T06:22:40.496Z,0.00
2023-12-16T06:23:40.478Z,0.00
2023-12-16T06:24:40.454Z,0.00
2023-12-16T06:25:40.701Z,0.00
2023-12-16T06:26:40.467Z,0.00
2023-12-16T06:27:40.593Z,0.00
2023-12-16T06:28:40.421Z,0.00
2023-12-16T06:29:40.416Z,0.00
2023-12-16T06:30:40.688Z,0.00
2023-12-16T06:31:40.426Z,0.00
2023-12-16T06:32:40.412Z,0.00
2023-12-16T06:33:40.375Z,0.00
2023-12-16T06:34:40.413Z,0.00
2023-12-16T06:35:40.342Z,0.00
2023-12-16T06:36:40.332Z,0.00
2023-12-16T06:37:40.649Z,0.00
2023-12-16T06:38:40.303Z,0.00
2023-12-16T06:39:40.296Z,0.00
2023-12-16T06:40:40.316Z,0.00
2023-12-16T06:41:40.286Z,0.00
2023-12-16T06:42:40.255Z,0.00
2023-12-16T06:43:40.248Z,0.00
2023-12-16T06:44:40.526Z,0.00
2023-12-16T06:45:40.234Z,0.00
2023-12-16T06:46:40.308Z,0.00
2023-12-16T06:47:40.465Z,0.00
2023-12-16T06:48:40.339Z,0.00
2023-12-16T06:49:40.314Z,0.00
2023-12-16T06:50:40.176Z,4.00
2023-12-16T06:51:40.176Z,4.00
2023-12-16T06:52:40.149Z,0.00
2023-12-16T06:53:40.150Z,4.00
2023-12-16T06:54:40.134Z,4.00
2023-12-16T06:55:40.124Z,4.00
2023-12-16T06:56:40.112Z,4.00
2023-12-16T06:57:40.349Z,4.00
2023-12-16T06:58:40.080Z,4.00
2023-12-16T06:59:40.092Z,4.00
2023-12-16T07:00:40.077Z,8.00
2023-12-16T07:01:40.188Z,8.00
2023-12-16T07:02:40.038Z,12.00
2023-12-16T07:03:40.084Z,16.00
2023-12-16T07:04:40.048Z,16.00
2023-12-16T07:05:40.036Z,20.00
2023-12-16T07:06:39.991Z,24.00
2023-12-16T07:07:40.150Z,24.00
2023-12-16T07:08:39.992Z,32.00
2023-12-16T07:09:39.974Z,36.00
2023-12-16T07:10:39.964Z,40.00
2023-12-16T07:11:40.109Z,48.00
2023-12-16T07:12:39.938Z,52.00
2023-12-16T07:13:39.936Z,60.00
2023-12-16T07:14:39.913Z,68.00
2023-12-16T07:15:39.918Z,76.00
2023-12-16T07:16:39.892Z,88.00
2023-12-16T07:17:40.429Z,96.00
2023-12-16T07:18:39.909Z,108.00
2023-12-16T07:19:39.978Z,124.00
2023-12-16T07:20:39.849Z,136.00
2023-12-16T07:21:39.831Z,148.00
2023-12-16T07:22:39.985Z,160.00
2023-12-16T07:23:40.099Z,176.00
2023-12-16T07:24:39.801Z,192.00
2023-12-16T07:25:39.898Z,208.00
2023-12-16T07:26:39.800Z,220.00
2023-12-16T07:27:40.201Z,240.00
2023-12-16T07:28:39.761Z,256.00
2023-12-16T07:29:39.761Z,268.00
2023-12-16T07:30:39.828Z,284.00
2023-12-16T07:31:39.882Z,292.00
2023-12-16T07:32:39.901Z,304.00
2023-12-16T07:33:39.808Z,316.00
2023-12-16T07:34:39.826Z,328.00
2023-12-16T07:35:39.824Z,344.00
2023-12-16T07:36:39.714Z,368.00
2023-12-16T07:37:39.930Z,384.00
2023-12-16T07:38:39.664Z,396.00
2023-12-16T07:39:39.629Z,412.00
2023-12-16T07:40:39.953Z,420.00
2023-12-16T07:41:39.635Z,436.00
2023-12-16T07:42:40.890Z,464.00
2023-12-16T07:43:39.590Z,488.00
2023-12-16T07:44:39.850Z,516.00
2023-12-16T07:45:39.566Z,540.00
2023-12-16T07:46:39.576Z,564.00
2023-12-16T07:47:39.928Z,604.00
2023-12-16T07:48:39.628Z,640.00
2023-12-16T07:49:39.552Z,676.00
2023-12-16T07:50:39.532Z,708.00
2023-12-16T07:51:39.510Z,716.00
2023-12-16T07:52:39.492Z,748.00
2023-12-16T07:53:39.479Z,796.00
2023-12-16T07:54:39.471Z,824.00
2023-12-16T07:55:39.750Z,868.00
2023-12-16T07:56:39.450Z,904.00
2023-12-16T07:57:39.716Z,940.00
2023-12-16T07:58:39.446Z,1008.00
2023-12-16T07:59:39.577Z,1068.00
2023-12-16T08:00:39.808Z,1092.00
2023-12-16T08:01:39.570Z,1160.00
2023-12-16T08:02:39.795Z,1232.00
2023-12-16T08:03:39.434Z,1264.00
2023-12-16T08:04:39.499Z,1320.00
2023-12-16T08:05:39.396Z,1376.00
2023-12-16T08:06:39.480Z,1420.00
2023-12-16T08:07:39.867Z,1496.00
2023-12-16T08:08:39.321Z,1584.00
2023-12-16T08:09:39.324Z,1648.00
2023-12-16T08:10:39.329Z,1720.00
2023-12-16T08:11:39.837Z,1792.00
2023-12-16T08:12:39.288Z,1872.00
2023-12-16T08:13:39.279Z,1952.00
2023-12-16T08:14:39.278Z,2100.00
2023-12-16T08:15:39.497Z,2288.00
2023-12-16T08:16:39.230Z,2248.00
2023-12-16T08:17:39.482Z,2172.00
2023-12-16T08:18:39.304Z,2216.00
2023-12-16T08:19:39.283Z,2456.00
2023-12-16T08:20:39.187Z,2784.00
2023-12-16T08:21:39.169Z,3016.00
2023-12-16T08:22:39.230Z,3168.00
2023-12-16T08:23:39.160Z,3328.00
2023-12-16T08:24:39.146Z,3424.00
2023-12-16T08:25:39.490Z,3584.00
2023-12-16T08:26:39.149Z,3752.00
2023-12-16T08:27:39.377Z,3768.00
2023-12-16T08:28:39.117Z,3780.00
2023-12-16T08:29:39.111Z,3700.00
2023-12-16T08:30:39.142Z,3540.00
2023-12-16T08:31:39.111Z,3636.00
2023-12-16T08:32:39.109Z,3864.00
2023-12-16T08:33:39.128Z,3908.00
2023-12-16T08:34:39.132Z,3940.00
2023-12-16T08:35:39.059Z,4016.00
2023-12-16T08:36:39.012Z,4016.00
2023-12-16T08:37:39.548Z,4132.00
2023-12-16T08:38:39.090Z,4400.00
2023-12-16T08:39:38.997Z,4464.00
2023-12-16T08:40:39.037Z,4600.00
2023-12-16T08:41:38.962Z,4780.00
2023-12-16T08:42:38.954Z,5080.00
2023-12-16T08:43:38.927Z,5228.00
2023-12-16T08:44:38.925Z,5172.00
2023-12-16T08:45:38.918Z,5104.00
2023-12-16T08:46:39.244Z,4984.00
2023-12-16T08:47:39.186Z,4936.00
2023-12-16T08:48:38.902Z,4912.00
2023-12-16T08:49:38.955Z,4832.00
2023-12-16T08:50:38.864Z,4740.00
2023-12-16T08:51:38.864Z,4788.00
2023-12-16T08:52:38.886Z,4732.00
2023-12-16T08:53:38.830Z,4620.00
2023-12-16T08:54:38.830Z,4528.00
2023-12-16T08:55:39.110Z,4496.00
2023-12-16T08:56:38.834Z,4472.00
2023-12-16T08:57:39.092Z,4480.00
2023-12-16T08:58:38.774Z,4508.00
2023-12-16T08:59:38.790Z,4552.00
2023-12-16T09:00:38.931Z,4616.00
2023-12-16T09:01:38.798Z,4696.00
2023-12-16T09:02:38.737Z,4796.00
2023-12-16T09:03:38.768Z,5012.00
2023-12-16T09:04:38.773Z,5448.00
2023-12-16T09:05:38.727Z,6128.00
2023-12-16T09:06:38.685Z,6888.00
2023-12-16T09:07:39.085Z,7624.00
2023-12-16T09:08:38.680Z,8128.00
2023-12-16T09:09:38.653Z,8356.00
2023-12-16T09:10:38.745Z,8676.00
2023-12-16T09:11:38.645Z,9080.00
2023-12-16T09:12:38.641Z,9476.00
2023-12-16T09:13:38.670Z,9636.00
2023-12-16T09:14:38.790Z,9492.00
2023-12-16T09:15:38.689Z,9340.00
2023-12-16T09:16:38.673Z,9052.00
2023-12-16T09:17:38.803Z,8840.00
2023-12-16T09:18:38.782Z,9044.00
2023-12-16T09:19:38.774Z,9240.00
2023-12-16T09:20:38.618Z,9348.00
2023-12-16T09:21:38.536Z,9340.00
2023-12-16T09:22:38.628Z,8996.00
2023-12-16T09:23:38.600Z,8312.00
2023-12-16T09:24:38.519Z,7524.00
2023-12-16T09:25:38.503Z,6868.00
2023-12-16T09:26:38.740Z,6940.00
2023-12-16T09:27:38.740Z,7264.00
2023-12-16T09:28:38.548Z,7488.00
2023-12-16T09:29:38.589Z,7708.00
2023-12-16T09:30:38.462Z,7964.00
2023-12-16T09:31:38.515Z,8028.00
2023-12-16T09:32:38.640Z,8052.00
2023-12-16T09:33:38.547Z,8024.00
2023-12-16T09:34:38.391Z,8044.00
2023-12-16T09:35:38.366Z,8112.00
2023-12-16T09:36:38.367Z,8208.00
2023-12-16T09:37:38.728Z,8320.00
2023-12-16T09:38:38.357Z,8400.00
2023-12-16T09:39:38.312Z,8448.00
2023-12-16T09:40:38.386Z,8476.00
2023-12-16T09:41:38.324Z,8508.00
2023-12-16T09:42:38.302Z,8532.00
2023-12-16T09:43:38.327Z,8516.00
2023-12-16T09:44:38.652Z,8464.00
2023-12-16T09:45:38.257Z,8384.00
2023-12-16T09:46:38.359Z,8268.00
2023-12-16T09:47:38.647Z,8252.00
2023-12-16T09:48:38.308Z,8208.00
2023-12-16T09:49:38.341Z,8216.00
2023-12-16T09:50:38.227Z,8216.00
2023-12-16T09:51:38.739Z,8268.00
2023-12-16T09:52:38.209Z,8408.00
2023-12-16T09:53:38.167Z,8780.00
2023-12-16T09:54:38.160Z,9568.00
2023-12-16T09:55:38.173Z,10476.00
2023-12-16T09:56:38.150Z,11048.00
2023-12-16T09:57:38.291Z,11400.00
2023-12-16T09:58:38.151Z,13140.00
2023-12-16T09:59:38.108Z,10524.00
2023-12-16T10:00:38.083Z,10168.00
2023-12-16T10:01:38.308Z,10580.00
2023-12-16T10:02:38.094Z,9804.00
2023-12-16T10:03:38.057Z,8928.00
2023-12-16T10:04:38.142Z,8488.00
2023-12-16T10:05:38.074Z,7620.00
2023-12-16T10:06:38.087Z,8196.00
2023-12-16T10:07:38.337Z,10172.00
2023-12-16T10:08:38.018Z,11864.00
2023-12-16T10:09:38.063Z,13464.00
2023-12-16T10:10:38.071Z,14944.00
2023-12-16T10:11:37.970Z,17536.00
2023-12-16T10:12:37.965Z,19232.00
2023-12-16T10:13:37.954Z,17664.00
2023-12-16T10:14:37.946Z,15068.00
2023-12-16T10:15:37.940Z,14816.00
2023-12-16T10:16:37.933Z,14024.00
2023-12-16T10:17:38.227Z,13696.00
2023-12-16T10:18:37.925Z,13524.00
2023-12-16T10:19:37.917Z,12888.00
2023-12-16T10:20:37.960Z,11764.00
2023-12-16T10:21:37.866Z,10376.00
2023-12-16T10:22:37.894Z,9232.00
2023-12-16T10:23:37.844Z,8416.00
2023-12-16T10:24:37.851Z,7932.00
2023-12-16T10:25:37.906Z,7788.00
2023-12-16T10:26:37.809Z,7748.00
2023-12-16T10:27:38.002Z,7552.00
2023-12-16T10:28:37.804Z,7424.00
2023-12-16T10:29:38.690Z,7388.00
2023-12-16T10:30:37.764Z,7224.00
2023-12-16T10:31:37.771Z,7048.00
2023-12-16T10:32:37.795Z,6960.00
2023-12-16T10:33:38.009Z,7032.00
2023-12-16T10:34:37.829Z,7220.00
2023-12-16T10:35:37.712Z,7336.00
2023-12-16T10:36:37.713Z,7548.00
2023-12-16T10:37:38.078Z,8132.00
2023-12-16T10:38:37.688Z,9032.00
2023-12-16T10:39:37.734Z,9760.00
2023-12-16T10:40:37.729Z,10252.00
2023-12-16T10:41:37.642Z,10492.00
2023-12-16T10:42:37.625Z,10548.00
2023-12-16T10:43:37.744Z,11156.00
2023-12-16T10:44:37.617Z,12120.00
2023-12-16T10:45:37.600Z,12584.00
2023-12-16T10:46:37.755Z,12764.00
2023-12-16T10:47:37.632Z,13000.00
2023-12-16T10:48:37.788Z,13580.00
2023-12-16T10:49:37.650Z,14252.00
2023-12-16T10:50:38.266Z,15200.00
2023-12-16T10:51:37.524Z,15260.00
2023-12-16T10:52:37.559Z,15620.00
2023-12-16T10:53:37.509Z,15832.00
2023-12-16T10:54:37.527Z,15768.00
2023-12-16T10:55:37.597Z,15904.00
2023-12-16T10:56:38.093Z,15984.00
2023-12-16T10:57:37.477Z,15124.00
2023-12-16T10:58:37.478Z,13996.00
2023-12-16T10:59:37.471Z,13536.00
2023-12-16T11:00:37.459Z,13636.00
2023-12-16T11:01:37.505Z,13400.00
2023-12-16T11:02:37.437Z,12680.00
2023-12-16T11:03:37.419Z,12188.00
2023-12-16T11:04:37.464Z,11904.00
2023-12-16T11:05:37.455Z,12148.00
2023-12-16T11:06:37.383Z,13180.00
2023-12-16T11:07:37.680Z,14120.00
2023-12-16T11:08:37.357Z,14096.00
2023-12-16T11:09:37.325Z,14524.00
2023-12-16T11:10:37.482Z,15724.00
2023-12-16T11:11:37.325Z,15888.00
2023-12-16T11:12:37.394Z,15652.00
2023-12-16T11:13:37.330Z,17728.00
2023-12-16T11:14:37.291Z,18624.00
2023-12-16T11:15:37.275Z,28960.00
2023-12-16T11:16:37.342Z,38016.00
2023-12-16T11:17:37.573Z,24192.00
2023-12-16T11:18:37.288Z,32224.00
2023-12-16T11:19:37.290Z,34944.00
2023-12-16T11:20:37.226Z,26208.00
2023-12-16T11:21:37.214Z,26560.00
2023-12-16T11:22:37.235Z,22016.00
2023-12-16T11:23:37.195Z,20416.00
2023-12-16T11:24:37.177Z,25696.00
2023-12-16T11:25:37.296Z,24288.00
2023-12-16T11:26:37.258Z,23200.00
2023-12-16T11:27:37.413Z,20608.00
2023-12-16T11:28:37.238Z,20960.00
2023-12-16T11:29:37.124Z,29568.00
2023-12-16T11:30:37.185Z,50304.00
2023-12-16T11:31:37.115Z,39232.00
2023-12-16T11:32:37.220Z,27840.00
2023-12-16T11:33:37.158Z,25632.00
2023-12-16T11:34:37.150Z,27872.00
2023-12-16T11:35:37.062Z,33216.00
2023-12-16T11:36:37.034Z,28992.00
2023-12-16T11:37:37.266Z,26304.00
2023-12-16T11:38:37.021Z,24128.00
2023-12-16T11:39:37.019Z,20608.00
2023-12-16T11:40:37.014Z,19296.00
2023-12-16T11:41:36.971Z,18560.00
2023-12-16T11:42:36.986Z,17568.00
2023-12-16T11:43:37.029Z,17312.00
2023-12-16T11:44:36.942Z,17120.00
2023-12-16T11:45:36.988Z,16800.00
2023-12-16T11:46:37.030Z,16576.00
2023-12-16T11:47:36.943Z,16448.00
2023-12-16T11:48:36.920Z,16480.00
2023-12-16T11:49:36.932Z,16384.00
2023-12-16T11:50:36.879Z,16672.00
2023-12-16T11:51:36.864Z,16384.00
2023-12-16T11:52:37.041Z,16704.00
2023-12-16T11:53:36.857Z,17152.00
2023-12-16T11:54:36.834Z,20032.00
2023-12-16T11:55:36.932Z,20896.00
2023-12-16T11:56:36.837Z,19360.00
2023-12-16T11:57:36.820Z,20096.00
2023-12-16T11:58:36.970Z,22208.00
2023-12-16T11:59:37.040Z,22304.00
2023-12-16T12:00:36.805Z,21376.00
2023-12-16T12:01:37.166Z,21088.00
2023-12-16T12:02:36.838Z,20512.00
2023-12-16T12:03:36.793Z,19712.00
2023-12-16T12:04:36.772Z,19552.00
2023-12-16T12:05:36.878Z,18400.00
2023-12-16T12:06:36.725Z,16992.00
2023-12-16T12:07:36.769Z,15724.00
2023-12-16T12:08:36.723Z,14884.00
2023-12-16T12:09:36.681Z,14184.00
2023-12-16T12:10:36.743Z,13576.00
2023-12-16T12:11:36.655Z,13524.00
2023-12-16T12:12:36.988Z,14348.00
2023-12-16T12:13:36.643Z,15508.00
2023-12-16T12:14:36.631Z,15960.00
2023-12-16T12:15:36.602Z,15528.00
2023-12-16T12:16:36.653Z,14888.00
2023-12-16T12:17:36.657Z,14128.00
2023-12-16T12:18:36.659Z,13308.00
2023-12-16T12:19:36.628Z,12288.00
2023-12-16T12:20:36.586Z,11312.00
2023-12-16T12:21:36.626Z,10528.00
2023-12-16T12:22:36.643Z,9900.00
2023-12-16T12:23:36.518Z,9028.00
2023-12-16T12:24:36.499Z,8396.00
2023-12-16T12:25:36.523Z,8104.00
2023-12-16T12:26:36.474Z,8084.00
2023-12-16T12:27:36.589Z,8160.00
2023-12-16T12:28:36.494Z,8524.00
2023-12-16T12:29:36.499Z,8908.00
2023-12-16T12:30:36.502Z,8980.00
2023-12-16T12:31:36.438Z,8968.00
2023-12-16T12:32:36.682Z,9048.00
2023-12-16T12:33:36.680Z,8952.00
2023-12-16T12:34:36.455Z,9184.00
2023-12-16T12:35:36.486Z,9716.00
2023-12-16T12:36:36.369Z,9968.00
2023-12-16T12:37:36.685Z,10168.00
2023-12-16T12:38:36.393Z,10288.00
2023-12-16T12:39:36.344Z,10672.00
2023-12-16T12:40:36.341Z,10832.00
2023-12-16T12:41:36.329Z,10680.00
2023-12-16T12:42:36.312Z,10788.00